createdAt,value
2022-08-09T00:00:56.972Z,99741.53
2022-08-09T00:04:06.192Z,99738.75
2022-08-09T00:06:18.424Z,99728.06
2022-08-09T00:08:51.867Z,99715.56
2022-08-09T00:11:25.078Z,99698.53
2022-08-09T00:13:55.613Z,99699.19
2022-08-09T00:16:26.429Z,99696.38
2022-08-09T00:19:09.334Z,99712.09
2022-08-09T00:21:38.764Z,99706.06
2022-08-09T00:24:22.773Z,99708.84
2022-08-09T00:26:51.491Z,99705.53
2022-08-09T00:30:10.271Z,99702.91
2022-08-09T00:32:06.857Z,99709.13
2022-08-09T00:34:33.923Z,99690.69
2022-08-09T00:37:01.182Z,99687.97
2022-08-09T00:40:12.956Z,99665.94
2022-08-09T00:44:15.771Z,99664.13
2022-08-09T00:45:14.843Z,99680.06
2022-08-09T00:47:44.114Z,99701.28
2022-08-09T00:50:14.570Z,99712.91
2022-08-09T00:52:42.306Z,99719.13
2022-08-09T00:55:10.241Z,99713.97
2022-08-09T00:57:37.880Z,99704.31
2022-08-09T01:00:22.068Z,99703.69
2022-08-09T01:03:09.292Z,99709.94
2022-08-09T01:06:18.018Z,99706.69
2022-08-09T01:09:21.037Z,99713.78
2022-08-09T01:12:04.592Z,99716.69
2022-08-09T01:14:45.164Z,99731.09
2022-08-09T01:17:30.711Z,99725.22
2022-08-09T01:20:04.539Z,99722.00
2022-08-09T01:22:54.821Z,99728.09
2022-08-09T01:25:51.250Z,99716.03
2022-08-09T01:28:22.260Z,99742.47
2022-08-09T01:30:53.157Z,99725.66
2022-08-09T01:33:25.991Z,99720.53
2022-08-09T01:35:59.244Z,99733.59
2022-08-09T01:38:30.072Z,99719.78
2022-08-09T01:41:12.390Z,99729.31
2022-08-09T01:43:50.385Z,99732.69
2022-08-09T01:46:25.153Z,99722.22
2022-08-09T01:48:59.696Z,99734.38
2022-08-09T01:51:32.279Z,99732.59
2022-08-09T01:54:02.433Z,99741.25
2022-08-09T01:56:34.799Z,99725.56
2022-08-09T01:59:09.426Z,99737.00
2022-08-09T02:01:58.148Z,99743.84
2022-08-09T02:04:28.539Z,99745.63
2022-08-09T02:08:00.119Z,99745.63
2022-08-09T02:10:12.635Z,99746.44
2022-08-09T02:12:41.515Z,99750.84
2022-08-09T02:15:11.704Z,99751.69
2022-08-09T02:18:00.625Z,99749.03
2022-08-09T02:20:44.085Z,99736.00
2022-08-09T02:23:39.845Z,99744.66
2022-08-09T02:26:26.677Z,99756.06
2022-08-09T02:29:00.549Z,99738.66
2022-08-09T02:31:34.169Z,99767.31
2022-08-09T02:34:13.188Z,99770.72
2022-08-09T02:36:44.643Z,99756.66
2022-08-09T02:39:20.289Z,99762.66
2022-08-09T02:42:05.758Z,99760.06
2022-08-09T02:44:44.831Z,99771.53
2022-08-09T02:47:14.169Z,99774.06
2022-08-09T02:49:48.131Z,99789.53
2022-08-09T02:52:38.035Z,99794.41
2022-08-09T02:55:20.083Z,99787.94
2022-08-09T02:58:32.889Z,99784.00
2022-08-09T03:00:58.218Z,99779.09
2022-08-09T03:04:12.513Z,99770.94
2022-08-09T03:06:16.022Z,99773.31
2022-08-09T03:08:48.376Z,99771.59
2022-08-09T03:11:30.210Z,99766.13
2022-08-09T03:14:07.992Z,99774.22
2022-08-09T03:16:41.615Z,99781.00
2022-08-09T03:19:14.073Z,99763.56
2022-08-09T03:21:48.531Z,99771.25
2022-08-09T03:24:31.266Z,99764.44
2022-08-09T03:27:09.684Z,99772.16
2022-08-09T03:29:58.252Z,99760.63
2022-08-09T03:32:31.986Z,99763.28
2022-08-09T03:35:00.821Z,99772.19
2022-08-09T03:37:55.959Z,99766.88
2022-08-09T03:40:18.161Z,99765.81
2022-08-09T03:42:46.667Z,99771.19
2022-08-09T03:45:15.393Z,99760.44
2022-08-09T03:47:46.645Z,99767.72
2022-08-09T03:50:18.801Z,99773.31
2022-08-09T03:53:01.307Z,99782.97
2022-08-09T03:55:36.068Z,99782.44
2022-08-09T03:58:14.924Z,99787.00
2022-08-09T04:00:45.258Z,99778.19
2022-08-09T04:03:19.649Z,99774.00
2022-08-09T04:06:04.414Z,99772.78
2022-08-09T04:08:33.292Z,99782.41
2022-08-09T04:11:01.723Z,99786.91
2022-08-09T04:13:45.116Z,99792.94
2022-08-09T04:16:20.257Z,99783.09
2022-08-09T04:18:49.253Z,99778.22
2022-08-09T04:21:19.299Z,99776.81
2022-08-09T04:23:53.959Z,99785.28
2022-08-09T04:26:37.770Z,99778.38
2022-08-09T04:29:10.955Z,99777.81
2022-08-09T04:31:47.241Z,99771.97
2022-08-09T04:34:18.735Z,99763.75
2022-08-09T04:36:50.205Z,99776.78
2022-08-09T04:39:17.756Z,99775.19
2022-08-09T04:41:44.834Z,99770.06
2022-08-09T04:44:14.467Z,99774.19
2022-08-09T04:46:59.260Z,99771.28
2022-08-09T04:49:52.295Z,99753.78
2022-08-09T04:52:32.529Z,99746.63
2022-08-09T04:55:01.633Z,99748.06
2022-08-09T04:57:54.189Z,99752.84
2022-08-09T05:00:19.880Z,99751.63
2022-08-09T05:02:48.755Z,99756.94
2022-08-09T05:05:32.074Z,99752.91
2022-08-09T05:08:07.751Z,99745.75
2022-08-09T05:10:36.804Z,99744.81
2022-08-09T05:13:04.310Z,99736.31
2022-08-09T05:15:39.370Z,99746.81
2022-08-09T05:18:39.414Z,99743.94
2022-08-09T05:21:02.815Z,99762.06
2022-08-09T05:23:54.426Z,99751.03
2022-08-09T05:26:37.365Z,99752.81
2022-08-09T05:29:17.432Z,99751.81
2022-08-09T05:31:57.380Z,99751.75
2022-08-09T05:34:32.124Z,99752.69
2022-08-09T05:37:06.632Z,99742.59
2022-08-09T05:39:42.910Z,99747.53
2022-08-09T05:42:20.555Z,99754.72
2022-08-09T05:44:51.664Z,99751.97
2022-08-09T05:47:27.264Z,99751.72
2022-08-09T05:50:23.498Z,99742.88
2022-08-09T05:52:52.306Z,99744.75
2022-08-09T05:55:21.994Z,99735.97
2022-08-09T05:57:57.563Z,99747.59
2022-08-09T06:00:29.084Z,99753.56
2022-08-09T06:02:58.351Z,99749.25
2022-08-09T06:05:30.676Z,99748.06
2022-08-09T06:08:19.571Z,99738.94
2022-08-09T06:10:56.159Z,99748.63
2022-08-09T06:13:24.693Z,99740.91
2022-08-09T06:15:53.011Z,99731.63
2022-08-09T06:18:25.371Z,99734.56
2022-08-09T06:20:58.107Z,99736.13
2022-08-09T06:23:57.271Z,99747.19
2022-08-09T06:26:20.474Z,99747.28
2022-08-09T06:28:59.544Z,99751.91
2022-08-09T06:31:31.310Z,99739.41
2022-08-09T06:34:07.466Z,99747.81
2022-08-09T06:36:34.799Z,99745.44
2022-08-09T06:39:02.705Z,99743.34
2022-08-09T06:42:07.514Z,99736.50
2022-08-09T06:44:25.669Z,99741.41
2022-08-09T06:46:55.273Z,99742.28
2022-08-09T06:49:44.752Z,99740.75
2022-08-09T06:52:15.584Z,99745.31
2022-08-09T06:54:43.668Z,99750.53
2022-08-09T06:57:12.166Z,99746.72
2022-08-09T07:00:49.649Z,99737.94
2022-08-09T07:02:32.054Z,99737.38
2022-08-09T07:05:00.489Z,99735.31
2022-08-09T07:08:00.054Z,99755.59
2022-08-09T07:10:29.608Z,99757.78
2022-08-09T07:12:59.024Z,99757.13
2022-08-09T07:16:36.199Z,99761.63
2022-08-09T07:18:14.997Z,99767.38
2022-08-09T07:20:43.741Z,99764.09
2022-08-09T07:23:18.951Z,99760.94
2022-08-09T07:25:52.568Z,99768.34
2022-08-09T07:28:30.873Z,99759.34
2022-08-09T07:31:04.895Z,99759.28
2022-08-09T07:33:52.821Z,99757.63
2022-08-09T07:36:20.754Z,99746.16
2022-08-09T07:38:56.813Z,99733.84
2022-08-09T07:41:27.678Z,99740.47
2022-08-09T07:44:06.969Z,99749.97
2022-08-09T07:46:37.405Z,99758.25
2022-08-09T07:49:06.227Z,99760.84
2022-08-09T07:52:05.973Z,99759.19
2022-08-09T07:54:27.862Z,99757.50
2022-08-09T07:56:58.493Z,99758.34
2022-08-09T07:59:34.310Z,99764.81
2022-08-09T08:02:19.417Z,99759.75
2022-08-09T08:04:48.507Z,99756.75
2022-08-09T08:08:42.623Z,99757.84
2022-08-09T08:10:08.655Z,99764.63
2022-08-09T08:12:43.279Z,99780.75
2022-08-09T08:15:14.499Z,99770.25
2022-08-09T08:17:53.722Z,99778.91
2022-08-09T08:20:29.505Z,99776.03
2022-08-09T08:23:16.182Z,99763.16
2022-08-09T08:25:48.292Z,99770.84
2022-08-09T08:28:18.279Z,99776.66
2022-08-09T08:30:53.850Z,99775.00
2022-08-09T08:33:24.230Z,99776.56
2022-08-09T08:36:00.480Z,99779.59
2022-08-09T08:38:30.966Z,99784.66
2022-08-09T08:40:58.864Z,99776.88
2022-08-09T08:43:27.816Z,99773.66
2022-08-09T08:46:17.117Z,99770.91
2022-08-09T08:48:51.198Z,99781.44
2022-08-09T08:51:19.322Z,99775.94
2022-08-09T08:54:03.700Z,99783.06
2022-08-09T08:56:36.457Z,99782.19
2022-08-09T08:59:19.699Z,99781.56
2022-08-09T09:01:53.019Z,99782.13
2022-08-09T09:04:41.612Z,99768.53
2022-08-09T09:07:16.020Z,99772.22
2022-08-09T09:10:01.699Z,99781.75
2022-08-09T09:12:35.427Z,99765.75
2022-08-09T09:15:05.766Z,99761.88
2022-08-09T09:17:48.913Z,99766.84
2022-08-09T09:20:21.472Z,99737.09
2022-08-09T09:23:01.917Z,99751.34
2022-08-09T09:26:01.355Z,99755.97
2022-08-09T09:28:39.278Z,99761.78
2022-08-09T09:32:04.659Z,99756.53
2022-08-09T09:34:14.215Z,99759.09
2022-08-09T09:36:46.984Z,99764.38
2022-08-09T09:39:42.894Z,99748.06
2022-08-09T09:42:25.652Z,99760.06
2022-08-09T09:45:08.108Z,99744.31
2022-08-09T09:47:40.774Z,99747.09
2022-08-09T09:50:23.193Z,99730.38
2022-08-09T09:52:56.137Z,99747.53
2022-08-09T09:55:32.281Z,99745.78
2022-08-09T09:58:17.074Z,99741.34
2022-08-09T10:00:58.526Z,99750.81
2022-08-09T10:03:57.097Z,99737.28
2022-08-09T10:06:32.178Z,99738.25
2022-08-09T10:09:11.968Z,99741.00
2022-08-09T10:12:14.614Z,99726.75
2022-08-09T10:14:48.981Z,99737.03
2022-08-09T10:17:39.111Z,99734.34
2022-08-09T10:20:35.694Z,99737.19
2022-08-09T10:23:22.035Z,99744.91
2022-08-09T10:26:07.839Z,99747.97
2022-08-09T10:28:40.032Z,99751.09
2022-08-09T10:34:08.566Z,99744.72
2022-08-09T10:36:50.270Z,99744.75
2022-08-09T10:39:23.440Z,99748.47
2022-08-09T10:41:56.040Z,99746.44
2022-08-09T10:44:26.637Z,99735.19
2022-08-09T10:48:12.620Z,99756.25
2022-08-09T10:50:30.848Z,99754.31
2022-08-09T10:53:17.320Z,99754.16
2022-08-09T10:55:58.477Z,99748.50
2022-08-09T10:58:37.069Z,99754.59
2022-08-09T11:03:02.144Z,99747.88
2022-08-09T11:04:27.995Z,99756.22
2022-08-09T11:07:00.339Z,99758.66
2022-08-09T11:09:48.767Z,99757.53
2022-08-09T11:12:17.634Z,99768.72
2022-08-09T11:14:55.929Z,99755.22
2022-08-09T11:17:27.462Z,99748.69
2022-08-09T11:20:17.959Z,99751.19
2022-08-09T11:22:55.583Z,99752.38
2022-08-09T11:25:45.647Z,99747.34
2022-08-09T11:28:34.658Z,99760.88
2022-08-09T11:31:43.195Z,99749.41
2022-08-09T11:34:44.012Z,99746.31
2022-08-09T11:37:25.868Z,99746.47
2022-08-09T11:40:07.275Z,99752.91
2022-08-09T11:42:49.040Z,99757.94
2022-08-09T11:45:37.607Z,99747.91
2022-08-09T11:48:25.329Z,99753.47
2022-08-09T11:53:02.090Z,99730.38
2022-08-09T11:54:13.807Z,99738.72
2022-08-09T11:56:48.269Z,99736.53
2022-08-09T11:59:30.134Z,99742.78
2022-08-09T12:02:17.427Z,99736.47
2022-08-09T12:04:54.716Z,99734.00
2022-08-09T12:07:41.405Z,99745.50
2022-08-09T12:10:14.387Z,99754.50
2022-08-09T12:12:59.230Z,99754.63
2022-08-09T12:15:50.067Z,99740.88
2022-08-09T12:18:30.310Z,99742.38
2022-08-09T12:21:03.110Z,99738.69
2022-08-09T12:23:57.916Z,99746.94
2022-08-09T12:26:25.774Z,99744.69
2022-08-09T12:29:12.151Z,99762.09
2022-08-09T12:31:58.943Z,99755.53
2022-08-09T12:34:38.086Z,99753.22
2022-08-09T12:37:23.839Z,99755.44
2022-08-09T12:40:05.700Z,99743.63
2022-08-09T12:42:34.618Z,99744.91
2022-08-09T12:45:07.127Z,99742.66
2022-08-09T12:47:52.778Z,99740.75
2022-08-09T12:50:23.697Z,99743.22
2022-08-09T12:53:18.381Z,99739.22
2022-08-09T12:56:15.819Z,99735.06
2022-08-09T12:58:27.648Z,99720.47
2022-08-09T13:00:57.646Z,99729.59
2022-08-09T13:03:58.405Z,99733.78
2022-08-09T13:06:35.793Z,99742.75
2022-08-09T13:09:13.897Z,99714.72
2022-08-09T13:11:44.242Z,99744.31
2022-08-09T13:14:41.856Z,99731.50
2022-08-09T13:17:05.390Z,99733.31
2022-08-09T13:20:09.096Z,99721.78
2022-08-09T13:22:35.957Z,99726.22
2022-08-09T13:25:07.623Z,99724.84
2022-08-09T13:27:40.100Z,99733.47
2022-08-09T13:30:50.130Z,99730.63
2022-08-09T13:33:06.837Z,99728.09
2022-08-09T13:36:37.916Z,99733.97
2022-08-09T13:38:55.719Z,99726.38
2022-08-09T13:41:50.973Z,99729.41
2022-08-09T13:44:00.512Z,99735.50
2022-08-09T13:47:17.861Z,99738.91
2022-08-09T13:49:19.697Z,99729.13
2022-08-09T13:52:01.102Z,99725.53
2022-08-09T13:54:30.335Z,99720.25
2022-08-09T13:56:57.919Z,99721.44
2022-08-09T13:59:26.126Z,99729.75
2022-08-09T14:02:14.123Z,99715.13
2022-08-09T14:04:59.578Z,99728.47
2022-08-09T14:07:30.185Z,99728.31
2022-08-09T14:10:17.268Z,99741.13
2022-08-09T14:12:56.863Z,99723.69
2022-08-09T14:16:09.810Z,99734.44
2022-08-09T14:18:20.018Z,99732.34
2022-08-09T14:20:55.345Z,99719.66
2022-08-09T14:23:40.372Z,99729.88
2022-08-09T14:26:11.167Z,99734.34
2022-08-09T14:28:38.618Z,99730.47
2022-08-09T14:31:07.672Z,99736.78
2022-08-09T14:33:38.260Z,99739.84
2022-08-09T14:36:20.515Z,99747.31
2022-08-09T14:38:51.219Z,99734.03
2022-08-09T14:41:34.493Z,99748.84
2022-08-09T14:44:11.091Z,99752.66
2022-08-09T14:47:03.280Z,99738.81
2022-08-09T14:49:26.861Z,99752.56
2022-08-09T14:51:58.448Z,99754.59
2022-08-09T14:54:28.418Z,99754.28
2022-08-09T14:56:59.049Z,99753.22
2022-08-09T14:59:28.654Z,99747.78
2022-08-09T15:01:56.197Z,99745.34
2022-08-09T15:04:23.963Z,99743.13
2022-08-09T15:06:52.143Z,99747.00
2022-08-09T15:10:03.114Z,99755.41
2022-08-09T15:12:08.168Z,99752.25
2022-08-09T15:14:38.313Z,99752.78
2022-08-09T15:17:09.716Z,99741.88
2022-08-09T15:19:37.153Z,99745.00
2022-08-09T15:22:25.903Z,99730.09
2022-08-09T15:24:54.489Z,99744.44
2022-08-09T15:27:22.099Z,99714.66
2022-08-09T15:30:57.625Z,99727.06
2022-08-09T15:32:36.822Z,99712.63
2022-08-09T15:35:40.423Z,99727.50
2022-08-09T15:37:56.248Z,99727.81
2022-08-09T15:40:25.317Z,99737.31
2022-08-09T15:42:59.761Z,99735.59
2022-08-09T15:45:29.381Z,99734.22
2022-08-09T15:48:05.371Z,99716.31
2022-08-09T15:50:33.947Z,99717.63
2022-08-09T15:53:07.075Z,99720.53
2022-08-09T15:56:04.556Z,99723.53
2022-08-09T15:58:33.701Z,99718.66
2022-08-09T16:01:01.747Z,99724.16
2022-08-09T16:03:38.092Z,99735.78
2022-08-09T16:06:07.835Z,99736.81
2022-08-09T16:08:56.224Z,99744.81
2022-08-09T16:11:23.313Z,99740.50
2022-08-09T16:14:03.759Z,99727.34
2022-08-09T16:16:37.261Z,99738.81
2022-08-09T16:19:10.885Z,99736.13
2022-08-09T16:21:42.788Z,99731.97
2022-08-09T16:24:29.976Z,99755.56
2022-08-09T16:27:02.506Z,99761.19
2022-08-09T16:29:36.822Z,99756.88
2022-08-09T16:32:18.212Z,99759.09
2022-08-09T16:34:56.619Z,99761.16
2022-08-09T16:37:54.449Z,99751.91
2022-08-09T16:40:29.889Z,99763.53
2022-08-09T16:43:03.132Z,99767.47
2022-08-09T16:45:31.309Z,99764.88
2022-08-09T16:48:41.088Z,99754.03
2022-08-09T16:50:59.160Z,99766.53
2022-08-09T16:53:34.473Z,99768.75
2022-08-09T16:56:06.304Z,99772.97
2022-08-09T16:58:39.668Z,99762.63
2022-08-09T17:01:08.235Z,99768.81
2022-08-09T17:03:36.502Z,99771.22
2022-08-09T17:06:28.132Z,99780.03
2022-08-09T17:08:59.958Z,99782.00
2022-08-09T17:11:40.214Z,99777.63
2022-08-09T17:14:26.139Z,99782.22
2022-08-09T17:17:02.345Z,99784.34
2022-08-09T17:19:46.571Z,99798.00
2022-08-09T17:22:24.677Z,99783.25
2022-08-09T17:25:03.240Z,99793.53
2022-08-09T17:27:33.104Z,99790.53
2022-08-09T17:30:04.739Z,99788.00
2022-08-09T17:32:38.251Z,99794.47
2022-08-09T17:35:12.094Z,99792.16
2022-08-09T17:38:11.747Z,99795.50
2022-08-09T17:40:29.877Z,99796.28
2022-08-09T17:42:59.564Z,99794.75
2022-08-09T17:45:56.845Z,99795.22
2022-08-09T17:48:18.403Z,99794.06
2022-08-09T17:50:59.419Z,99796.88
2022-08-09T17:53:42.999Z,99791.34
2022-08-09T17:56:18.251Z,99795.28
2022-08-09T17:58:45.665Z,99795.84
2022-08-09T18:01:22.600Z,99791.78
2022-08-09T18:03:54.526Z,99793.06
2022-08-09T18:06:32.348Z,99780.16
2022-08-09T18:09:05.513Z,99789.41
2022-08-09T18:12:04.855Z,99787.06
2022-08-09T18:14:23.810Z,99784.81
2022-08-09T18:16:52.963Z,99792.91
2022-08-09T18:20:55.365Z,99793.22
2022-08-09T18:22:13.306Z,99788.28
2022-08-09T18:24:45.699Z,99792.09
2022-08-09T18:27:18.859Z,99796.59
2022-08-09T18:30:42.346Z,99793.47
2022-08-09T18:32:53.969Z,99807.75
2022-08-09T18:35:58.630Z,99797.44
2022-08-09T18:38:14.429Z,99803.88
2022-08-09T18:40:48.890Z,99803.38
2022-08-09T18:43:17.662Z,99798.16
2022-08-09T18:46:50.534Z,99800.16
2022-08-09T18:48:33.807Z,99803.09
2022-08-09T18:51:02.887Z,99807.72
2022-08-09T18:54:00.513Z,99807.91
2022-08-09T18:56:28.215Z,99817.69
2022-08-09T18:58:57.034Z,99808.19
2022-08-09T19:01:25.847Z,99810.88
2022-08-09T19:04:06.196Z,99802.22
2022-08-09T19:06:38.621Z,99809.41
2022-08-09T19:09:07.432Z,99809.53
2022-08-09T19:11:37.586Z,99811.50
2022-08-09T19:14:07.165Z,99809.13
2022-08-09T19:16:36.606Z,99800.47
2022-08-09T19:19:25.179Z,99800.66
2022-08-09T19:22:04.720Z,99789.56
2022-08-09T19:24:39.292Z,99803.75
2022-08-09T19:27:22.259Z,99799.66
2022-08-09T19:30:21.044Z,99797.88
2022-08-09T19:32:37.335Z,99802.53
2022-08-09T19:35:05.572Z,99799.13
2022-08-09T19:37:54.526Z,99804.69
2022-08-09T19:40:21.466Z,99799.56
2022-08-09T19:42:49.546Z,99796.34
2022-08-09T19:45:17.300Z,99795.56
2022-08-09T19:47:45.217Z,99798.28
2022-08-09T19:50:50.717Z,99801.84
2022-08-09T19:53:02.546Z,99796.50
2022-08-09T19:56:01.825Z,99782.38
2022-08-09T19:58:29.594Z,99791.97
2022-08-09T20:00:58.402Z,99790.25
2022-08-09T20:04:09.708Z,99794.66
2022-08-09T20:06:23.807Z,99787.84
2022-08-09T20:08:57.598Z,99781.78
2022-08-09T20:11:42.861Z,99790.53
2022-08-09T20:14:15.358Z,99784.53
2022-08-09T20:16:53.391Z,99793.41
2022-08-09T20:19:47.825Z,99787.31
2022-08-09T20:22:14.671Z,99796.16
2022-08-09T20:24:54.156Z,99788.31
2022-08-09T20:27:22.971Z,99796.31
2022-08-09T20:29:50.334Z,99778.91
2022-08-09T20:32:33.070Z,99787.59
2022-08-09T20:35:02.137Z,99793.81
2022-08-09T20:38:18.463Z,99788.69
2022-08-09T20:40:26.409Z,99768.75
2022-08-09T20:43:00.231Z,99789.53
2022-08-09T20:45:59.169Z,99798.34
2022-08-09T20:48:31.294Z,99805.13
2022-08-09T20:51:01.010Z,99806.66
2022-08-09T20:53:36.347Z,99803.03
2022-08-09T20:56:20.544Z,99800.44
2022-08-09T20:58:58.132Z,99806.59
2022-08-09T21:01:35.376Z,99801.41
2022-08-09T21:05:57.316Z,99803.19
2022-08-09T21:07:12.375Z,99809.47
2022-08-09T21:09:56.769Z,99806.06
2022-08-09T21:15:16.125Z,99811.56
2022-08-09T21:18:22.560Z,99814.38
2022-08-09T21:20:32.341Z,99811.97
2022-08-09T21:23:00.941Z,99813.78
2022-08-09T21:25:53.949Z,99802.53
2022-08-09T21:28:34.417Z,99801.66
2022-08-09T21:31:18.221Z,99808.59
2022-08-09T21:33:50.576Z,99813.88
2022-08-09T21:36:27.875Z,99795.59
2022-08-09T21:38:59.422Z,99791.28
2022-08-09T21:41:59.786Z,99797.28
2022-08-09T21:44:32.865Z,99796.63
2022-08-09T21:47:07.735Z,99800.13
2022-08-09T21:49:43.300Z,99772.38
2022-08-09T21:52:14.970Z,99787.34
2022-08-09T21:54:59.327Z,99788.38
2022-08-09T21:57:39.560Z,99786.72
2022-08-09T22:00:36.028Z,99785.22
2022-08-09T22:03:19.118Z,99787.72
2022-08-09T22:05:54.091Z,99792.97
2022-08-09T22:08:23.096Z,99784.19
2022-08-09T22:11:04.837Z,99785.16
2022-08-09T22:13:43.312Z,99766.91
2022-08-09T22:16:11.983Z,99773.00
2022-08-09T22:18:52.295Z,99783.28
2022-08-09T22:21:44.789Z,99777.31
2022-08-09T22:24:17.297Z,99772.00
2022-08-09T22:26:51.819Z,99783.00
2022-08-09T22:29:26.864Z,99778.59
2022-08-09T22:31:59.283Z,99774.09
2022-08-09T22:34:27.070Z,99775.78
2022-08-09T22:36:56.005Z,99779.16
2022-08-09T22:39:57.098Z,99765.06
2022-08-09T22:42:22.242Z,99770.25
2022-08-09T22:45:11.519Z,99782.59
2022-08-09T22:48:10.455Z,99770.41
2022-08-09T22:50:29.876Z,99774.44
2022-08-09T22:52:58.647Z,99777.94
2022-08-09T22:55:39.789Z,99773.56
2022-08-09T22:58:20.243Z,99781.44
2022-08-09T23:00:59.547Z,99769.25
2022-08-09T23:04:02.789Z,99759.59
2022-08-09T23:06:14.471Z,99768.22
2022-08-09T23:08:56.746Z,99769.09
2022-08-09T23:11:23.767Z,99759.50
2022-08-09T23:13:53.633Z,99764.56
2022-08-09T23:16:23.189Z,99764.72
2022-08-09T23:18:50.348Z,99771.63
2022-08-09T23:21:25.097Z,99772.50
2022-08-09T23:24:05.224Z,99773.38
2022-08-09T23:26:32.923Z,99770.78
2022-08-09T23:29:00.083Z,99772.50
2022-08-09T23:31:27.224Z,99787.38
2022-08-09T23:33:54.307Z,99784.97
2022-08-09T23:36:21.377Z,99792.91
2022-08-09T23:38:49.535Z,99791.34
2022-08-09T23:41:28.048Z,99782.81
2022-08-09T23:44:01.986Z,99796.13
2022-08-09T23:46:29.985Z,99807.56
2022-08-09T23:48:58.371Z,99799.88
2022-08-09T23:51:26.212Z,99800.00
2022-08-09T23:53:55.201Z,99805.56
2022-08-09T23:56:52.145Z,99788.38
2022-08-09T23:59:14.172Z,99797.34
